Time;durP1;ratioP1;P1;durP2;ratioP2;P2;SDS_P1;SDS_P2;PMS_P1;PMS_P2;Temp;Humidity;BMP_temperature;BMP_pressure;BME280_temperature;BME280_humidity;BME280_pressure;Samples;Min_cycle;Max_cycle;Signal;HPM_P1;HPM_P2
2022/10/01 00:00:39;;;;;;;3.38;3.08;;;;;;;10.89;80.76;100292.94;2104413;28;34650;-73
2022/10/01 00:01:45;;;;;;;3.72;3.40;;;;;;;10.93;80.77;100296.41;2104967;28;20857;-73
2022/10/01 00:02:47;;;;;;;6.80;3.15;;;;;;;10.87;81.03;100295.72;2105181;28;25760;-73
2022/10/01 00:03:49;;;;;;;6.15;3.28;;;;;;;10.89;80.47;100291.19;2104609;28;20913;-73
2022/10/01 00:04:50;;;;;;;4.40;3.00;;;;;;;10.91;80.31;100291.13;2104488;28;39224;-72
2022/10/01 00:06:12;;;;;;;5.72;3.50;;;;;;;10.91;80.34;100283.09;2095157;28;31969;-72
2022/10/01 00:07:14;;;;;;;4.30;2.65;;;;;;;10.91;80.44;100283.09;2098068;28;34602;-73
2022/10/01 00:08:15;;;;;;;4.30;2.83;;;;;;;10.89;80.80;100290.28;2104522;28;20261;-73
2022/10/01 00:09:17;;;;;;;4.22;3.05;;;;;;;10.91;80.74;100288.44;2094943;28;39724;-73
2022/10/01 00:10:19;;;;;;;4.68;3.00;;;;;;;10.91;80.65;100291.13;2094891;28;38371;-73
2022/10/01 00:11:24;;;;;;;4.05;3.17;;;;;;;10.93;80.59;100289.25;2104107;28;36099;-73
2022/10/01 00:12:26;;;;;;;5.07;3.00;;;;;;;10.92;80.63;100283.94;2104263;28;36052;-72
2022/10/01 00:13:32;;;;;;;5.53;3.10;;;;;;;10.93;80.64;100283.91;2104874;28;20789;-73
2022/10/01 00:14:37;;;;;;;3.85;3.10;;;;;;;10.94;80.69;100282.09;2103761;28;38803;-73
2022/10/01 00:15:42;;;;;;;4.93;2.95;;;;;;;10.92;80.46;100282.16;2104078;28;34254;-73
2022/10/01 00:16:43;;;;;;;4.55;2.90;;;;;;;10.94;80.24;100277.59;2103759;28;36469;-72
2022/10/01 00:17:46;;;;;;;4.45;2.78;;;;;;;10.97;80.52;100277.50;2104559;28;39239;-73
2022/10/01 00:18:48;;;;;;;4.13;3.03;;;;;;;10.97;80.55;100266.78;2104571;28;32657;-73
2022/10/01 00:19:49;;;;;;;4.25;3.10;;;;;;;11.00;80.00;100265.78;2095625;28;31434;-73
2022/10/01 00:20:51;;;;;;;3.78;2.70;;;;;;;10.99;80.28;100269.41;2095387;28;38959;-72
2022/10/01 00:21:53;;;;;;;3.45;2.70;;;;;;;10.99;80.65;100281.00;2104111;28;34477;-73
2022/10/01 00:22:54;;;;;;;5.10;2.40;;;;;;;11.02;80.11;100262.16;2095060;28;34168;-73
2022/10/01 00:24:00;;;;;;;5.43;3.00;;;;;;;11.02;80.16;100264.81;2095731;28;35141;-73
2022/10/01 00:25:04;;;;;;;5.75;3.00;;;;;;;11.01;80.59;100262.19;2104337;28;28809;-73
2022/10/01 00:26:14;;;;;;;4.57;2.92;;;;;;;11.02;80.33;100259.47;2103382;28;35094;-73
2022/10/01 00:27:16;;;;;;;4.80;2.90;;;;;;;11.03;80.43;100258.53;2104675;28;20052;-73
2022/10/01 00:28:18;;;;;;;3.55;2.97;;;;;;;11.01;80.47;100254.16;2104175;28;37774;-73
2022/10/01 00:29:20;;;;;;;3.05;2.55;;;;;;;11.02;80.94;100263.97;2103966;28;35598;-73
2022/10/01 00:30:22;;;;;;;7.50;3.10;;;;;;;10.98;81.14;100257.84;2104421;28;30968;-73
2022/10/01 00:31:25;;;;;;;3.22;2.85;;;;;;;10.98;80.90;100251.59;2104266;28;36421;-73
2022/10/01 00:32:26;;;;;;;4.88;2.70;;;;;;;11.01;81.08;100251.47;2095820;28;20041;-73
2022/10/01 00:33:28;;;;;;;4.70;3.08;;;;;;;11.00;80.69;100250.63;2087295;28;34548;-73
2022/10/01 00:34:30;;;;;;;4.10;2.85;;;;;;;11.01;80.92;100247.00;2097147;28;31317;-73
2022/10/01 00:35:31;;;;;;;3.65;2.85;;;;;;;11.03;80.31;100245.13;2096871;28;43719;-73
2022/10/01 00:36:33;;;;;;;4.85;3.20;;;;;;;11.03;80.54;100249.63;2089349;28;20068;-73
2022/10/01 00:37:36;;;;;;;3.10;2.72;;;;;;;11.04;80.63;100249.56;2096535;28;40126;-72
2022/10/01 00:38:39;;;;;;;3.70;2.70;;;;;;;11.05;80.23;100247.75;2096250;28;37965;-73
2022/10/01 00:39:41;;;;;;;6.82;3.33;;;;;;;11.05;80.63;100240.63;2097026;28;31412;-72
2022/10/01 00:40:42;;;;;;;4.25;3.13;;;;;;;11.03;80.80;100244.25;2105804;28;34808;-72
2022/10/01 00:41:45;;;;;;;7.32;2.95;;;;;;;11.02;81.06;100240.72;2105089;28;38029;-72
2022/10/01 00:42:47;;;;;;;4.45;3.00;;;;;;;11.04;80.65;100238.84;2097440;28;31012;-73
2022/10/01 00:43:55;;;;;;;3.45;2.67;;;;;;;11.05;80.94;100234.34;2096767;28;39434;-72
2022/10/01 00:45:01;;;;;;;5.63;3.10;;;;;;;11.10;80.27;100231.53;2097404;28;37103;-72
2022/10/01 00:46:16;;;;;;;4.15;3.08;;;;;;;11.08;80.34;100235.13;2097148;28;35497;-72
2022/10/01 00:47:28;;;;;;;5.97;2.78;;;;;;;11.12;80.36;100226.97;2088389;28;32089;-72
2022/10/01 00:48:38;;;;;;;5.97;2.80;;;;;;;11.15;79.71;100240.28;2092078;28;32539;-73
2022/10/01 00:49:42;;;;;;;3.85;2.63;;;;;;;11.14;79.94;100235.84;2088219;28;30668;-73
2022/10/01 00:50:47;;;;;;;4.90;3.22;;;;;;;11.14;80.42;100235.84;2090838;28;20045;-73
2022/10/01 00:52:04;;;;;;;4.38;2.78;;;;;;;11.14;80.93;100238.50;2087715;28;34014;-72
2022/10/01 00:53:11;;;;;;;3.88;3.10;;;;;;;11.15;80.39;100229.56;2083178;28;20907;-72
2022/10/01 00:54:21;;;;;;;4.80;3.03;;;;;;;11.12;80.78;100227.84;2089253;28;38300;-73
2022/10/01 00:55:31;;;;;;;4.30;3.08;;;;;;;11.10;81.32;100229.72;2096629;28;37185;-72
2022/10/01 00:56:37;;;;;;;5.90;3.17;;;;;;;11.11;81.18;100225.22;2097938;28;23335;-73
2022/10/01 00:57:40;;;;;;;5.60;3.50;;;;;;;11.11;81.09;100226.13;2096529;28;41300;-72
2022/10/01 00:58:42;;;;;;;5.78;3.20;;;;;;;11.13;81.51;100220.72;2097687;28;20821;-73
2022/10/01 00:59:46;;;;;;;5.65;3.10;;;;;;;11.12;81.50;100222.50;2097010;28;36694;-73
2022/10/01 01:00:50;;;;;;;4.13;3.13;;;;;;;11.11;81.63;100219.84;2087983;28;38243;-73
2022/10/01 01:01:54;;;;;;;6.10;3.55;;;;;;;11.11;81.90;100215.41;2088794;28;38561;-73
2022/10/01 01:02:56;;;;;;;5.82;3.17;;;;;;;11.12;81.77;100221.63;2096820;28;39827;-73
2022/10/01 01:03:58;;;;;;;4.43;2.95;;;;;;;11.10;82.47;100215.44;2097062;28;35426;-73
2022/10/01 01:05:00;;;;;;;4.60;3.03;;;;;;;11.11;82.41;100214.50;2088353;28;36388;-73
2022/10/01 01:06:08;;;;;;;5.65;3.15;;;;;;;11.10;82.54;100207.41;2088484;28;34660;-73
2022/10/01 01:07:10;;;;;;;3.90;3.28;;;;;;;11.06;83.32;100207.53;2097760;28;20757;-73
2022/10/01 01:08:14;;;;;;;5.60;3.38;;;;;;;11.06;83.25;100196.81;2088307;28;32258;-73
2022/10/01 01:09:20;;;;;;;5.43;3.45;;;;;;;11.06;83.59;100198.63;2088723;28;30809;-73
2022/10/01 01:10:48;;;;;;;3.58;3.25;;;;;;;11.06;83.37;100196.81;2097134;28;33694;-73
2022/10/01 01:12:09;;;;;;;6.88;3.38;;;;;;;11.07;82.77;100189.63;2097114;28;33094;-73
2022/10/01 01:13:13;;;;;;;4.22;3.60;;;;;;;11.08;82.73;100197.63;2102783;28;36796;-73
2022/10/01 01:14:29;;;;;;;4.82;3.47;;;;;;;11.13;81.98;100193.91;2104955;28;34588;-73
2022/10/01 01:15:43;;;;;;;3.92;3.28;;;;;;;11.11;82.52;100201.09;2096232;28;39885;-72
2022/10/01 01:17:07;;;;;;;4.10;3.38;;;;;;;11.12;82.21;100198.38;2091599;28;36251;-73
2022/10/01 01:18:34;;;;;;;3.92;3.20;;;;;;;11.13;81.90;100180.53;2093374;28;20049;-72
2022/10/01 01:20:21;;;;;;;4.70;3.70;;;;;;;11.14;81.96;100190.28;2094216;28;37167;-73
2022/10/01 01:21:37;;;;;;;5.03;3.30;;;;;;;11.16;81.91;100180.38;2105888;28;20845;-73
2022/10/01 01:22:49;;;;;;;3.90;3.35;;;;;;;11.19;81.45;100185.63;2105397;28;38296;-73
2022/10/01 01:24:31;;;;;;;4.75;3.40;;;;;;;11.20;82.20;100190.94;2096551;28;36816;-72
2022/10/01 01:25:48;;;;;;;4.38;3.42;;;;;;;11.20;82.32;100176.69;2103550;28;36838;-73
2022/10/01 01:27:07;;;;;;;5.70;3.72;;;;;;;11.18;83.01;100182.09;2096341;28;38549;-73
2022/10/01 01:28:36;;;;;;;3.93;3.57;;;;;;;11.15;84.64;100186.69;2100966;28;32779;-73
2022/10/01 01:29:47;;;;;;;6.07;3.75;;;;;;;11.13;84.94;100180.53;2105165;28;31506;-73
2022/10/01 01:30:54;;;;;;;6.57;4.22;;;;;;;11.10;85.15;100176.13;2105419;28;36606;-73
2022/10/01 01:32:06;;;;;;;3.83;3.20;;;;;;;11.08;85.41;100178.00;2096601;28;37018;-73
2022/10/01 01:33:17;;;;;;;5.72;4.00;;;;;;;11.06;86.32;100167.34;2099398;28;38381;-73
2022/10/01 01:34:27;;;;;;;7.53;4.15;;;;;;;11.04;86.68;100177.25;2096515;28;33745;-73
2022/10/01 01:35:58;;;;;;;;;;;;;;;11.00;87.46;100164.00;2090137;28;40718;-73
2022/10/01 01:37:10;;;;;;;4.85;4.00;;;;;;;10.96;88.06;100170.41;2100367;28;40019;-73
2022/10/01 01:38:20;;;;;;;6.57;4.47;;;;;;;10.96;87.69;100165.06;2096661;28;32454;-73
2022/10/01 01:39:26;;;;;;;5.15;4.25;;;;;;;10.92;89.10;100156.25;2090916;28;20072;-73
2022/10/01 01:40:31;;;;;;;7.90;4.00;;;;;;;10.89;89.08;100161.72;2089527;28;41456;-74
2022/10/01 01:41:39;;;;;;;6.13;4.45;;;;;;;10.86;89.26;100161.84;2089224;28;36760;-74
2022/10/01 01:42:43;;;;;;;5.22;4.20;;;;;;;10.82;90.76;100157.53;2097884;28;34957;-74
2022/10/01 01:43:51;;;;;;;5.18;4.47;;;;;;;10.78;91.15;100167.47;2095753;28;35458;-74
2022/10/01 01:44:57;;;;;;;4.88;4.20;;;;;;;10.77;90.52;100157.72;2088879;28;35391;-74
2022/10/01 01:46:05;;;;;;;4.85;4.38;;;;;;;10.75;91.06;100158.69;2088555;28;35897;-74
2022/10/01 01:47:09;;;;;;;5.88;5.03;;;;;;;10.74;91.71;100156.94;2089968;28;30936;-74
2022/10/01 01:48:12;;;;;;;6.28;4.57;;;;;;;10.73;91.57;100149.81;2088920;28;32338;-74
2022/10/01 01:49:18;;;;;;;5.03;4.30;;;;;;;10.75;91.06;100139.94;2096869;28;30072;-74
2022/10/01 01:50:22;;;;;;;7.03;4.50;;;;;;;10.73;91.64;100145.38;2095998;28;32222;-74
2022/10/01 01:51:39;;;;;;;5.78;4.47;;;;;;;10.72;91.88;100148.09;2097225;28;31343;-73
2022/10/01 01:52:41;;;;;;;5.55;4.68;;;;;;;10.69;92.29;100144.59;2096998;28;20094;-73
2022/10/01 01:53:43;;;;;;;6.65;5.10;;;;;;;10.65;92.91;100132.25;2097635;28;37359;-74
2022/10/01 01:56:06;;;;;;;9.05;5.43;;;;;;;10.61;93.61;100133.28;2088523;28;42327;-72
2022/10/01 01:57:12;;;;;;;7.03;4.95;;;;;;;10.60;93.88;100131.53;2087654;28;34132;-72
2022/10/01 01:58:18;;;;;;;6.18;5.05;;;;;;;10.57;94.53;100118.28;2079632;28;28812;-72
2022/10/01 01:59:22;;;;;;;8.70;5.35;;;;;;;10.56;94.83;100126.34;2071159;28;39965;-72
2022/10/01 02:00:24;;;;;;;7.15;5.53;;;;;;;10.55;94.97;100114.78;2072790;28;20106;-72
2022/10/01 02:01:38;;;;;;;6.70;5.50;;;;;;;10.53;95.66;100121.09;2080315;28;38804;-72
2022/10/01 02:02:52;;;;;;;6.65;5.47;;;;;;;10.50;95.48;100111.41;2080049;28;31058;-72
2022/10/01 02:03:54;;;;;;;5.60;4.97;;;;;;;10.50;95.75;100114.06;2080494;28;31318;-73
2022/10/01 02:05:07;;;;;;;7.45;5.88;;;;;;;10.48;96.09;100113.22;2071302;28;34021;-73
2022/10/01 02:06:41;;;;;;;5.82;5.28;;;;;;;10.44;96.48;100106.25;2073513;28;28089;-73
2022/10/01 02:08:06;;;;;;;6.90;5.32;;;;;;;10.42;96.55;100102.75;2070681;28;29867;-73
2022/10/01 02:09:29;;;;;;;7.32;6.00;;;;;;;10.41;96.93;100087.63;2078467;28;35947;-73
2022/10/01 02:11:17;;;;;;;6.88;5.72;;;;;;;10.38;97.84;100082.41;2072455;28;20890;-73
2022/10/01 02:12:36;;;;;;;9.63;5.82;;;;;;;10.34;98.24;100094.13;2079895;28;37933;-74
2022/10/01 02:14:24;;;;;;;7.25;6.30;;;;;;;10.30;98.22;100078.16;2071661;28;38052;-73
2022/10/01 02:15:55;;;;;;;7.05;5.88;;;;;;;10.25;99.29;100080.13;2072329;28;26176;-74
2022/10/01 02:17:09;;;;;;;6.88;5.97;;;;;;;10.23;100.00;100071.28;2072251;28;30448;-74
2022/10/01 02:18:29;;;;;;;8.77;6.70;;;;;;;10.19;100.00;100072.28;2072539;28;28986;-74
2022/10/01 02:19:44;;;;;;;8.40;6.47;;;;;;;10.17;100.00;100068.81;2063143;28;35220;-73
2022/10/01 02:21:03;;;;;;;7.20;6.50;;;;;;;10.14;100.00;100066.25;2059951;28;20904;-73
2022/10/01 02:22:15;;;;;;;7.75;6.78;;;;;;;10.12;100.00;100063.63;2066992;28;33577;-72
2022/10/01 02:23:32;;;;;;;10.13;6.30;;;;;;;10.12;100.00;100070.75;2071808;28;31837;-73
2022/10/01 02:26:18;;;;;;;9.85;6.90;;;;;;;10.09;100.00;100052.19;2065625;28;20063;-74
2022/10/01 02:27:35;;;;;;;7.35;6.65;;;;;;;10.07;100.00;100054.03;2065000;28;33444;-74
2022/10/01 02:28:41;;;;;;;6.97;6.38;;;;;;;10.04;100.00;100048.78;2054228;28;29303;-73
2022/10/01 02:29:47;;;;;;;8.40;7.05;;;;;;;10.04;100.00;100043.44;2056547;28;43039;-74
2022/10/01 02:30:53;;;;;;;11.05;7.35;;;;;;;10.02;100.00;100048.84;2055088;28;33443;-73
2022/10/01 02:31:56;;;;;;;10.00;7.78;;;;;;;10.02;100.00;100037.28;2048003;28;38494;-74
2022/10/01 02:33:00;;;;;;;8.40;7.60;;;;;;;9.99;100.00;100035.56;2055653;28;30259;-73
2022/10/01 02:34:06;;;;;;;8.85;7.80;;;;;;;9.98;100.00;100032.94;2054659;28;31897;-74
2022/10/01 02:35:16;;;;;;;7.90;7.10;;;;;;;9.96;100.00;100027.66;2049209;28;20047;-74
2022/10/01 02:36:21;;;;;;;8.02;7.22;;;;;;;9.97;100.00;100031.22;2048825;28;36378;-74
2022/10/01 02:37:26;;;;;;;9.80;8.32;;;;;;;9.93;100.00;100025.97;2048655;28;20052;-74
2022/10/01 02:38:34;;;;;;;10.18;8.10;;;;;;;9.94;100.00;100019.69;2040047;28;31273;-73
2022/10/01 02:39:40;;;;;;;10.57;7.43;;;;;;;9.97;100.00;100020.50;2057662;28;30093;-74
2022/10/01 02:40:46;;;;;;;8.32;7.53;;;;;;;9.96;100.00;100008.94;2062393;28;20058;-72
2022/10/01 02:41:50;;;;;;;10.38;7.82;;;;;;;9.94;100.00;100017.03;2056707;28;30061;-74
2022/10/01 02:43:01;;;;;;;8.10;7.05;;;;;;;9.93;100.00;100017.94;2051798;28;20047;-73
2022/10/01 02:44:09;;;;;;;10.10;7.85;;;;;;;9.94;100.00;100014.34;2056612;28;37790;-74
2022/10/01 02:45:17;;;;;;;9.15;8.10;;;;;;;9.92;100.00;100008.19;2061386;28;33715;-74
2022/10/01 02:46:36;;;;;;;10.82;8.40;;;;;;;9.91;100.00;100019.78;2055196;28;31313;-74
2022/10/01 02:47:49;;;;;;;8.98;8.07;;;;;;;9.88;100.00;100003.84;2055689;28;38481;-74
2022/10/01 02:48:51;;;;;;;9.88;8.13;;;;;;;9.88;100.00;100009.19;2055543;28;30313;-74
2022/10/01 02:49:55;;;;;;;9.38;8.43;;;;;;;9.87;100.00;100012.81;2054955;28;38904;-73
2022/10/01 02:51:40;;;;;;;8.88;7.93;;;;;;;9.86;100.00;100003.03;2055247;28;36990;-74
2022/10/01 02:52:54;;;;;;;9.88;7.88;;;;;;;9.84;100.00;100002.22;2054978;28;34294;-74
2022/10/01 02:54:27;;;;;;;8.80;7.90;;;;;;;9.84;100.00;99999.53;2055854;28;20122;-73
2022/10/01 02:55:34;;;;;;;8.65;7.70;;;;;;;9.83;100.00;100003.13;2052253;28;34717;-74
2022/10/01 02:58:01;;;;;;;11.68;8.00;;;;;;;9.81;100.00;99996.09;2064347;28;35958;-73
2022/10/01 02:59:07;;;;;;;10.00;8.05;;;;;;;9.82;100.00;99996.06;2059825;28;32989;-73
2022/10/01 03:00:15;;;;;;;9.50;8.40;;;;;;;9.85;100.00;100005.75;2055964;28;27680;-73
2022/10/01 03:01:17;;;;;;;12.23;8.65;;;;;;;9.81;100.00;100001.44;2054928;28;32157;-73
2022/10/01 03:02:21;;;;;;;9.45;8.30;;;;;;;9.81;100.00;99991.63;2055599;28;20050;-73
2022/10/01 03:03:26;;;;;;;10.27;8.60;;;;;;;9.80;100.00;99987.22;2054619;28;34489;-73
2022/10/01 03:04:27;;;;;;;10.27;9.27;;;;;;;9.79;100.00;99989.94;2054935;28;34210;-73
2022/10/01 03:05:29;;;;;;;9.45;8.52;;;;;;;9.78;100.00;99993.53;2055218;28;36010;-74
2022/10/01 03:06:31;;;;;;;10.32;9.27;;;;;;;9.77;100.00;99990.00;2055440;28;37065;-73
2022/10/01 03:07:34;;;;;;;11.35;9.30;;;;;;;9.77;100.00;99978.44;2055994;28;20043;-73
2022/10/01 03:08:36;;;;;;;11.82;9.25;;;;;;;9.75;100.00;99981.16;2055442;28;34743;-73
2022/10/01 03:09:40;;;;;;;10.85;9.43;;;;;;;9.73;100.00;99981.22;2055122;28;35807;-73
2022/10/01 03:10:46;;;;;;;11.13;9.85;;;;;;;9.71;100.00;99966.16;2056218;28;20039;-73
2022/10/01 03:11:48;;;;;;;10.60;9.38;;;;;;;9.70;100.00;99964.41;2055398;28;32127;-73
2022/10/01 03:12:50;;;;;;;11.98;10.15;;;;;;;9.69;100.00;99962.66;2055726;28;34908;-73
2022/10/01 03:13:52;;;;;;;11.00;9.70;;;;;;;9.69;100.00;99962.66;2055240;28;28806;-72
2022/10/01 03:14:54;;;;;;;13.25;10.10;;;;;;;9.66;100.00;99952.94;2055720;28;40144;-73
2022/10/01 03:15:56;;;;;;;10.73;9.68;;;;;;;9.67;100.00;99951.13;2055630;28;20040;-73
2022/10/01 03:16:57;;;;;;;12.00;10.52;;;;;;;9.66;100.00;99944.06;2055400;28;40496;-74
2022/10/01 03:17:59;;;;;;;11.80;10.27;;;;;;;9.64;100.00;99948.59;2054873;28;36763;-73
2022/10/01 03:19:01;;;;;;;13.07;11.27;;;;;;;9.63;100.00;99941.50;2055586;28;34955;-73
2022/10/01 03:20:05;;;;;;;12.63;11.38;;;;;;;9.61;100.00;99930.00;2055382;28;31482;-73
2022/10/01 03:21:07;;;;;;;13.60;10.32;;;;;;;9.61;100.00;99930.00;2055656;28;33614;-73
2022/10/01 03:22:13;;;;;;;11.50;10.40;;;;;;;9.60;100.00;99922.88;2055416;28;31661;-73
2022/10/01 03:23:15;;;;;;;15.05;10.77;;;;;;;9.58;100.00;99914.91;2054842;28;32111;-73
2022/10/01 03:24:16;;;;;;;12.00;10.68;;;;;;;9.58;100.00;99911.38;2055288;28;20043;-73
2022/10/01 03:25:18;;;;;;;13.20;11.18;;;;;;;9.58;100.00;99906.03;2055516;28;29311;-73
2022/10/01 03:26:25;;;;;;;12.05;10.85;;;;;;;9.55;100.00;99891.88;2055698;28;20066;-73
2022/10/01 03:27:26;;;;;;;14.80;11.95;;;;;;;9.56;100.00;99892.72;2055676;28;33833;-73
2022/10/01 03:28:30;;;;;;;14.27;12.07;;;;;;;9.54;100.00;99882.09;2055058;28;31541;-73
2022/10/01 03:29:32;;;;;;;12.38;11.18;;;;;;;9.56;100.00;99876.69;2055406;28;33349;-71
2022/10/01 03:30:34;;;;;;;13.90;12.10;;;;;;;9.53;100.00;99872.34;2054679;28;30742;-71
2022/10/01 03:31:36;;;;;;;13.10;11.88;;;;;;;9.51;100.00;99879.56;2054670;28;33314;-72
2022/10/01 03:32:38;;;;;;;15.07;12.32;;;;;;;9.50;100.00;99875.13;2056051;28;20054;-72
2022/10/01 03:33:43;;;;;;;15.20;12.65;;;;;;;9.50;100.00;99871.59;2055629;28;36408;-72
2022/10/01 03:34:46;;;;;;;13.50;12.07;;;;;;;9.49;100.00;99869.81;2055805;28;20036;-73
2022/10/01 03:35:48;;;;;;;15.75;12.52;;;;;;;9.47;100.00;99867.19;2055949;28;29907;-72
2022/10/01 03:36:53;;;;;;;14.38;12.80;;;;;;;9.47;100.00;99872.53;2054918;28;38391;-72
2022/10/01 03:37:54;;;;;;;13.73;12.32;;;;;;;9.45;100.00;99874.41;2055589;28;20043;-72
2022/10/01 03:38:56;;;;;;;15.13;12.55;;;;;;;9.45;100.00;99870.88;2055327;28;38574;-72
2022/10/01 03:39:58;;;;;;;15.75;12.80;;;;;;;9.43;100.00;99864.72;2055292;28;37511;-72
2022/10/01 03:41:02;;;;;;;14.85;13.35;;;;;;;9.40;100.00;99857.66;2055805;28;20044;-73
2022/10/01 03:42:04;;;;;;;16.50;13.45;;;;;;;9.41;100.00;99856.75;2055077;28;33233;-70
2022/10/01 03:43:06;;;;;;;14.32;12.82;;;;;;;9.39;100.00;99861.28;2055631;28;20047;-72
2022/10/01 03:44:08;;;;;;;13.77;12.38;;;;;;;9.39;100.00;99863.09;2055528;28;35623;-72
2022/10/01 03:45:10;;;;;;;15.00;13.45;;;;;;;9.36;100.00;99854.22;2055008;28;40526;-72
2022/10/01 03:46:12;;;;;;;15.07;13.52;;;;;;;9.35;100.00;99851.63;2056328;28;20885;-71
2022/10/01 03:47:14;;;;;;;15.27;12.93;;;;;;;9.36;100.00;99848.03;2055215;28;33002;-72
2022/10/01 03:48:17;;;;;;;16.05;13.48;;;;;;;9.34;100.00;99852.56;2054787;28;37699;-72
2022/10/01 03:49:19;;;;;;;15.98;12.75;;;;;;;9.33;100.00;99869.50;2054806;28;34672;-73
2022/10/01 03:50:21;;;;;;;14.80;13.23;;;;;;;9.33;100.00;99880.19;2055168;28;39741;-72
2022/10/01 03:51:26;;;;;;;17.15;13.75;;;;;;;9.33;100.00;99874.84;2055703;28;20924;-72
2022/10/01 03:52:28;;;;;;;16.25;13.80;;;;;;;9.34;100.00;99868.56;2055366;28;39185;-73
2022/10/01 03:53:30;;;;;;;24.00;13.68;;;;;;;9.30;100.00;99866.94;2054890;28;34218;-72
2022/10/01 03:54:32;;;;;;;16.02;13.77;;;;;;;9.32;100.00;99862.41;2055526;28;30458;-72
2022/10/01 03:55:38;;;;;;;15.00;13.50;;;;;;;9.32;100.00;99857.09;2055023;28;37550;-72
2022/10/01 03:56:41;;;;;;;18.77;13.60;;;;;;;9.32;100.00;99851.75;2055888;28;20043;-73
2022/10/01 03:57:43;;;;;;;15.50;13.80;;;;;;;9.32;100.00;99849.06;2054766;28;33958;-73
2022/10/01 03:58:44;;;;;;;16.08;13.73;;;;;;;9.30;100.00;99848.25;2054125;28;36398;-72
2022/10/01 03:59:46;;;;;;;17.05;13.40;;;;;;;9.29;100.00;99854.50;2055818;28;20091;-72
2022/10/01 04:00:49;;;;;;;15.30;13.45;;;;;;;9.30;100.00;99853.59;2055575;28;33788;-72
2022/10/01 04:01:52;;;;;;;14.85;13.35;;;;;;;9.28;100.00;99850.09;2055476;28;20902;-72
2022/10/01 04:02:54;;;;;;;17.27;13.60;;;;;;;9.30;100.00;99848.25;2055261;28;34068;-72
2022/10/01 04:03:55;;;;;;;15.85;14.35;;;;;;;9.29;100.00;99849.16;2055099;28;32492;-72
2022/10/01 04:04:57;;;;;;;17.02;14.18;;;;;;;9.29;100.00;99854.50;2055531;28;35890;-72
2022/10/01 04:05:59;;;;;;;18.67;14.20;;;;;;;9.28;100.00;99850.09;2055698;28;20086;-72
2022/10/01 04:07:00;;;;;;;17.40;14.18;;;;;;;9.28;100.00;99847.44;2054933;28;40585;-72
2022/10/01 04:08:02;;;;;;;16.10;13.77;;;;;;;9.27;100.00;99859.91;2055294;28;30992;-72
2022/10/01 04:09:04;;;;;;;15.88;14.23;;;;;;;9.27;100.00;99853.69;2056175;28;35626;-72
2022/10/01 04:10:06;;;;;;;16.88;14.27;;;;;;;9.27;100.00;99859.91;2056237;28;32875;-73
2022/10/01 04:11:09;;;;;;;16.17;14.48;;;;;;;9.26;100.00;99858.16;2055947;28;38314;-73
2022/10/01 04:12:10;;;;;;;16.83;14.70;;;;;;;9.27;100.00;99859.03;2056585;28;30706;-72
2022/10/01 04:13:12;;;;;;;15.60;13.80;;;;;;;9.25;100.00;99861.75;2056255;28;35250;-72
2022/10/01 04:14:14;;;;;;;18.67;15.65;;;;;;;9.26;100.00;99857.28;2056251;28;31750;-73
2022/10/01 04:15:15;;;;;;;17.38;14.65;;;;;;;9.26;100.00;99859.94;2056232;28;40653;-73
2022/10/01 04:16:17;;;;;;;16.73;14.98;;;;;;;9.26;100.00;99855.50;2056392;28;34290;-73
2022/10/01 04:17:19;;;;;;;18.48;14.82;;;;;;;9.25;100.00;99860.91;2056621;28;32732;-73
2022/10/01 04:18:21;;;;;;;18.35;14.68;;;;;;;9.25;100.00;99852.88;2056272;28;32835;-71
2022/10/01 04:19:25;;;;;;;16.48;14.57;;;;;;;9.26;100.00;99855.50;2056915;28;33397;-73
2022/10/01 04:20:27;;;;;;;18.20;14.40;;;;;;;9.27;100.00;99859.03;2056554;28;33064;-72
2022/10/01 04:21:31;;;;;;;15.93;14.00;;;;;;;9.26;100.00;99866.19;2056905;28;20051;-73
2022/10/01 04:22:41;;;;;;;17.23;13.52;;;;;;;9.29;100.00;99835.81;2056252;28;35049;-74
2022/10/01 04:23:43;;;;;;;16.02;13.93;;;;;;;9.28;100.00;99845.63;2056067;28;36365;-72
2022/10/01 04:24:45;;;;;;;16.42;14.20;;;;;;;9.28;100.00;99840.28;2056443;28;20042;-72
2022/10/01 04:25:46;;;;;;;16.95;14.30;;;;;;;9.29;100.00;99843.81;2056373;28;37880;-72
2022/10/01 04:26:50;;;;;;;15.20;13.60;;;;;;;9.29;100.00;99842.00;2056527;28;32601;-72
2022/10/01 04:28:00;;;;;;;15.55;13.90;;;;;;;9.29;100.00;99827.81;2056744;28;30551;-72
2022/10/01 04:29:02;;;;;;;16.38;13.45;;;;;;;9.30;100.00;99840.25;2056087;28;36640;-73
2022/10/01 04:30:06;;;;;;;16.38;14.68;;;;;;;9.29;100.00;99838.47;2056725;28;25277;-73
2022/10/01 04:31:23;;;;;;;15.15;13.38;;;;;;;9.29;100.00;99825.13;2056178;28;39183;-73
2022/10/01 04:32:25;;;;;;;17.85;13.32;;;;;;;9.28;100.00;99824.25;2056369;28;36779;-73
2022/10/01 04:33:29;;;;;;;16.13;13.70;;;;;;;9.29;100.00;99819.78;2057073;28;37509;-71
2022/10/01 04:35:51;;;;;;;15.85;13.60;;;;;;;9.28;100.00;99823.41;2056065;28;31596;-72
2022/10/01 04:36:53;;;;;;;14.63;13.13;;;;;;;9.29;100.00;99823.31;2056236;28;34930;-72
2022/10/01 04:38:02;;;;;;;14.82;12.68;;;;;;;9.30;100.00;99808.19;2056327;28;33567;-72
2022/10/01 04:39:04;;;;;;;15.98;12.93;;;;;;;9.31;100.00;99815.25;2056661;28;20047;-73
2022/10/01 04:40:11;;;;;;;14.73;12.85;;;;;;;9.30;100.00;99811.72;2056648;28;38618;-72
2022/10/01 04:41:16;;;;;;;14.00;12.60;;;;;;;9.31;100.00;99809.91;2056619;28;20040;-72
2022/10/01 04:42:20;;;;;;;14.65;12.90;;;;;;;9.32;100.00;99809.00;2056577;28;27517;-72
2022/10/01 04:43:22;;;;;;;15.00;13.07;;;;;;;9.31;100.00;99807.25;2056113;28;39348;-73
2022/10/01 04:44:26;;;;;;;15.85;12.77;;;;;;;9.32;100.00;99807.19;2057226;28;20854;-72
2022/10/01 04:45:28;;;;;;;15.32;12.75;;;;;;;9.32;100.00;99809.00;2055973;28;41423;-73
2022/10/01 04:46:30;;;;;;;13.35;11.98;;;;;;;9.32;100.00;99807.19;2056601;28;31187;-72
2022/10/01 04:47:32;;;;;;;13.68;12.27;;;;;;;9.34;100.00;99812.47;2056404;28;31359;-73
2022/10/01 04:48:37;;;;;;;17.00;12.60;;;;;;;9.35;100.00;99804.41;2056542;28;38814;-73
2022/10/01 04:49:39;;;;;;;13.15;11.75;;;;;;;9.36;100.00;99808.81;2055351;28;31562;-72
2022/10/01 04:50:41;;;;;;;13.82;11.80;;;;;;;9.36;100.00;99800.81;2055524;28;34036;-73
2022/10/01 04:51:42;;;;;;;13.30;12.05;;;;;;;9.36;100.00;99810.63;2056313;28;33042;-73
2022/10/01 04:52:46;;;;;;;13.05;11.77;;;;;;;9.36;100.00;99802.59;2056135;28;37195;-73
2022/10/01 04:53:48;;;;;;;13.23;11.88;;;;;;;9.37;100.00;99812.38;2055676;28;33794;-73
2022/10/01 04:54:51;;;;;;;14.70;11.85;;;;;;;9.37;100.00;99791.00;2055632;28;38483;-72
2022/10/01 04:55:53;;;;;;;13.85;11.98;;;;;;;9.37;100.00;99801.69;2056470;28;20051;-72
2022/10/01 04:56:57;;;;;;;12.65;11.27;;;;;;;9.38;100.00;99808.75;2056274;28;33932;-72
2022/10/01 04:58:01;;;;;;;12.13;11.00;;;;;;;9.42;100.00;99797.06;2056183;28;32998;-72
2022/10/01 04:59:03;;;;;;;11.63;10.48;;;;;;;9.41;100.00;99797.97;2056354;28;26764;-71
2022/10/01 05:00:09;;;;;;;12.95;11.60;;;;;;;9.42;100.00;99802.41;2055825;28;36733;-72
2022/10/01 05:01:12;;;;;;;11.75;10.55;;;;;;;9.44;100.00;99797.88;2057063;28;20054;-72
2022/10/01 05:02:13;;;;;;;11.93;10.65;;;;;;;9.44;100.00;99795.19;2056235;28;30748;-72
2022/10/01 05:03:16;;;;;;;12.90;11.05;;;;;;;9.45;100.00;99801.41;2056265;28;38769;-72
2022/10/01 05:04:20;;;;;;;12.00;10.18;;;;;;;9.45;100.00;99793.38;2056645;28;20040;-72
2022/10/01 05:05:26;;;;;;;11.30;10.13;;;;;;;9.46;100.00;99796.00;2055807;28;38718;-72
2022/10/01 05:06:27;;;;;;;11.38;10.27;;;;;;;9.47;100.00;99791.53;2047410;28;39237;-72
2022/10/01 05:07:31;;;;;;;12.38;11.07;;;;;;;9.47;100.00;99791.53;2048589;28;30115;-73
2022/10/01 05:08:32;;;;;;;11.02;10.02;;;;;;;9.47;100.00;99788.84;2056354;28;28960;-73
2022/10/01 05:09:34;;;;;;;10.77;9.68;;;;;;;9.48;100.00;99793.28;2056322;28;33299;-73
2022/10/01 05:10:36;;;;;;;12.07;10.88;;;;;;;9.47;100.00;99776.34;2055262;28;36932;-73
2022/10/01 05:11:37;;;;;;;11.45;10.32;;;;;;;9.48;100.00;99774.59;2055857;28;29274;-73
2022/10/01 05:12:40;;;;;;;11.10;9.82;;;;;;;9.48;100.00;99777.25;2055706;28;39878;-73
2022/10/01 05:13:42;;;;;;;11.85;10.75;;;;;;;9.47;100.00;99772.81;2056197;28;31318;-73